Time;durP1;ratioP1;P1;durP2;ratioP2;P2;SDS_P1;SDS_P2;PMS_P1;PMS_P2;Temp;Humidity;BMP_temperature;BMP_pressure;BME280_temperature;BME280_humidity;BME280_pressure;Samples;Min_cycle;Max_cycle;Signal;HPM_P1;HPM_P2
2022/08/07 00:00:49;;;;;;;1.87;1.77;;;24.10;39.70;;;;;;4990347;28;20244;-65
2022/08/07 00:03:15;;;;;;;1.83;1.73;;;24.10;39.70;;;;;;4977969;28;20663;-73
2022/08/07 00:05:40;;;;;;;1.90;1.80;;;24.10;39.70;;;;;;4963482;28;20235;-76
2022/08/07 00:08:06;;;;;;;2.00;1.90;;;24.10;39.70;;;;;;4963780;28;20313;-68
2022/08/07 00:10:32;;;;;;;2.10;2.00;;;24.00;39.60;;;;;;4962993;28;20231;-65
2022/08/07 00:12:59;;;;;;;2.30;2.20;;;24.00;39.60;;;;;;4963475;28;20477;-64
2022/08/07 00:15:25;;;;;;;1.90;1.80;;;24.10;39.70;;;;;;4971025;28;20263;-62
2022/08/07 00:17:51;;;;;;;2.40;1.93;;;24.00;39.60;;;;;;4963409;28;20469;-73
2022/08/07 00:20:16;;;;;;;2.10;1.90;;;24.00;39.60;;;;;;4965503;28;20361;-59
2022/08/07 00:22:42;;;;;;;2.00;1.90;;;24.10;39.70;;;;;;4958610;28;20243;-74
2022/08/07 00:25:08;;;;;;;1.70;1.60;;;24.00;39.60;;;;;;4964167;28;20691;-60
2022/08/07 00:27:35;;;;;;;2.13;2.03;;;24.00;39.60;;;;;;4962139;28;20281;-67
2022/08/07 00:30:02;;;;;;;1.90;1.80;;;24.00;39.60;;;;;;4965879;28;21827;-58
2022/08/07 00:32:27;;;;;;;2.13;2.03;;;24.00;39.70;;;;;;4964687;28;20929;-67
2022/08/07 00:34:53;;;;;;;3.87;1.70;;;24.00;39.60;;;;;;4960052;28;20488;-76
2022/08/07 00:37:19;;;;;;;2.00;1.90;;;24.00;39.70;;;;;;4964612;28;20224;-69
2022/08/07 00:39:44;;;;;;;2.20;2.10;;;24.00;39.60;;;;;;4970527;28;20227;-57
2022/08/07 00:42:10;;;;;;;2.20;2.00;;;24.00;39.70;;;;;;4962894;28;20258;-75
2022/08/07 00:44:36;;;;;;;2.40;2.20;;;24.00;39.60;;;;;;4961340;28;20338;-63
2022/08/07 00:47:04;;;;;;;2.00;1.90;;;24.00;39.70;;;;;;4969803;28;21071;-73
2022/08/07 00:49:29;;;;;;;2.20;1.70;;;24.00;39.60;;;;;;4961914;28;20484;-64
2022/08/07 00:51:55;;;;;;;2.00;1.90;;;24.00;39.60;;;;;;4961713;28;20800;-70
2022/08/07 00:54:21;;;;;;;2.23;2.13;;;24.00;39.60;;;;;;4959971;28;20262;-73
2022/08/07 00:56:47;;;;;;;2.13;2.03;;;24.00;39.60;;;;;;4967255;28;25786;-67
2022/08/07 00:59:13;;;;;;;1.80;1.70;;;24.00;39.70;;;;;;4959658;28;20251;-73
2022/08/07 01:01:38;;;;;;;2.10;2.00;;;24.00;39.60;;;;;;4969822;28;20468;-75
2022/08/07 01:04:07;;;;;;;2.10;2.00;;;24.00;39.60;;;;;;4960307;28;20235;-64
2022/08/07 01:06:34;;;;;;;2.60;1.77;;;24.00;39.60;;;;;;4978560;28;21504;-75
2022/08/07 01:09:00;;;;;;;1.80;1.70;;;24.00;39.70;;;;;;4981230;28;20463;-59
2022/08/07 01:11:30;;;;;;;1.77;1.67;;;24.00;39.60;;;;;;4980293;28;20985;-79
2022/08/07 01:13:56;;;;;;;2.03;1.90;;;24.00;39.60;;;;;;4978894;28;20936;-68
2022/08/07 01:16:22;;;;;;;1.93;1.83;;;24.00;39.70;;;;;;4983264;28;20482;-75
2022/08/07 01:18:48;;;;;;;2.10;2.00;;;24.00;39.60;;;;;;4992805;28;20357;-75
2022/08/07 01:21:15;;;;;;;1.97;1.87;;;24.00;39.60;;;;;;4981868;28;21681;-74
2022/08/07 01:23:46;;;;;;;2.00;1.90;;;24.00;39.60;;;;;;4980930;28;20325;-77
2022/08/07 01:26:13;;;;;;;1.90;1.80;;;24.00;39.60;;;;;;4983108;28;20498;-63
2022/08/07 01:28:42;;;;;;;2.20;2.00;;;24.00;39.70;;;;;;4980112;28;20486;-63
2022/08/07 01:31:08;;;;;;;2.33;2.23;;;24.00;39.60;;;;;;4979155;28;20547;-63
2022/08/07 01:33:34;;;;;;;1.87;1.77;;;24.00;39.60;;;;;;4988856;28;21986;-60
2022/08/07 01:36:01;;;;;;;3.33;2.33;;;24.00;39.70;;;;;;4979147;28;20468;-64
2022/08/07 01:38:28;;;;;;;1.90;1.80;;;24.00;39.70;;;;;;4986397;28;20453;-61
2022/08/07 01:40:57;;;;;;;1.80;1.70;;;24.00;39.60;;;;;;4981146;28;21286;-70
2022/08/07 01:43:24;;;;;;;1.83;1.73;;;24.00;39.60;;;;;;4979739;28;20481;-60
2022/08/07 01:45:50;;;;;;;2.47;2.37;;;24.00;39.70;;;;;;4984572;28;20576;-69
2022/08/07 01:48:16;;;;;;;2.10;2.00;;;24.00;39.70;;;;;;4986681;28;20472;-67
2022/08/07 01:50:45;;;;;;;8.67;4.10;;;24.00;39.60;;;;;;4981310;28;20472;-71
2022/08/07 01:53:13;;;;;;;2.10;2.00;;;24.00;39.60;;;;;;4980460;28;20230;-79
2022/08/07 01:55:44;;;;;;;2.20;2.10;;;24.00;39.60;;;;;;4982814;28;20942;-70
2022/08/07 01:58:12;;;;;;;2.20;2.10;;;24.00;39.60;;;;;;4980127;28;20491;-75
2022/08/07 02:00:39;;;;;;;2.00;1.90;;;24.00;39.60;;;;;;4974113;28;20525;-71
2022/08/07 02:03:10;;;;;;;2.23;2.00;;;24.00;39.60;;;;;;4984844;28;20499;-61
2022/08/07 02:05:43;;;;;;;1.90;1.80;;;24.00;39.60;;;;;;4983018;28;20546;-68
2022/08/07 02:08:12;;;;;;;2.10;2.00;;;24.00;39.70;;;;;;4978936;28;21840;-57
2022/08/07 02:10:39;;;;;;;2.30;2.20;;;24.00;39.60;;;;;;4979338;28;21181;-66
2022/08/07 02:13:05;;;;;;;2.23;2.13;;;24.00;39.70;;;;;;4978239;28;21721;-58
2022/08/07 02:15:32;;;;;;;2.00;1.90;;;24.00;39.60;;;;;;4981023;28;20486;-71
2022/08/07 02:18:01;;;;;;;2.00;1.90;;;24.00;39.70;;;;;;4978741;28;20523;-65
2022/08/07 02:20:30;;;;;;;2.10;2.00;;;24.00;39.60;;;;;;4985371;28;20468;-59
2022/08/07 02:23:00;;;;;;;2.40;2.30;;;24.00;39.60;;;;;;4974292;28;21196;-70
2022/08/07 02:25:29;;;;;;;2.00;1.90;;;24.00;39.60;;;;;;4978070;28;20995;-75
2022/08/07 02:27:57;;;;;;;2.00;1.90;;;24.00;39.60;;;;;;4978315;28;20482;-64
2022/08/07 02:30:23;;;;;;;2.10;2.00;;;24.00;39.60;;;;;;4981190;28;20476;-59
2022/08/07 02:32:51;;;;;;;2.50;2.30;;;24.00;39.60;;;;;;4977668;28;20582;-62
2022/08/07 02:35:18;;;;;;;2.13;2.03;;;24.00;39.60;;;;;;4991024;28;22418;-65
2022/08/07 02:37:45;;;;;;;2.37;2.27;;;24.00;39.60;;;;;;4983901;28;21567;-65
2022/08/07 02:40:11;;;;;;;2.30;2.20;;;24.00;39.60;;;;;;4979284;28;20580;-76
2022/08/07 02:42:38;;;;;;;2.20;2.10;;;24.00;39.60;;;;;;4980506;28;20504;-64
2022/08/07 02:45:06;;;;;;;2.00;1.90;;;24.00;39.60;;;;;;4982792;28;20468;-60
2022/08/07 02:47:32;;;;;;;2.10;2.00;;;24.00;39.60;;;;;;4982337;28;20476;-70
2022/08/07 02:49:57;;;;;;;2.40;2.30;;;24.00;39.60;;;;;;4987877;28;21590;-58
2022/08/07 02:52:36;;;;;;;2.50;2.30;;;24.00;39.60;;;;;;4980500;28;20269;-77
2022/08/07 02:55:06;;;;;;;2.00;1.90;;;24.00;39.60;;;;;;4983577;28;20227;-63
2022/08/07 02:57:35;;;;;;;2.30;2.20;;;24.00;39.60;;;;;;4986219;28;20522;-68
2022/08/07 03:00:02;;;;;;;2.40;2.30;;;24.00;40.30;;;;;;4987903;28;20482;-64
2022/08/07 03:02:28;;;;;;;2.40;2.30;;;24.00;39.60;;;;;;4986130;28;20586;-68
2022/08/07 03:04:55;;;;;;;2.10;2.00;;;24.00;39.60;;;;;;4988731;28;22121;-70
2022/08/07 03:07:21;;;;;;;2.27;2.17;;;24.00;39.60;;;;;;4984370;28;20230;-75
2022/08/07 03:09:47;;;;;;;2.00;1.90;;;24.00;39.60;;;;;;4982566;28;20521;-71
2022/08/07 03:12:14;;;;;;;2.63;2.53;;;24.00;39.60;;;;;;4980851;28;20231;-67
2022/08/07 03:14:41;;;;;;;2.50;2.30;;;24.00;39.60;;;;;;4982791;28;20481;-77
2022/08/07 03:17:07;;;;;;;2.00;1.90;;;24.00;39.50;;;;;;4986664;28;20479;-71
2022/08/07 03:19:34;;;;;;;2.20;2.00;;;24.00;39.50;;;;;;4990908;28;20503;-64
2022/08/07 03:22:01;;;;;;;2.23;2.13;;;24.00;39.60;;;;;;4980730;28;20239;-73
2022/08/07 03:24:26;;;;;;;2.47;2.37;;;24.00;39.60;;;;;;4983300;28;21284;-62
2022/08/07 03:26:53;;;;;;;2.20;2.10;;;24.00;39.60;;;;;;4988116;28;20475;-74
2022/08/07 03:29:20;;;;;;;2.30;2.20;;;24.00;39.60;;;;;;4983090;28;21349;-76
2022/08/07 03:31:48;;;;;;;2.40;2.30;;;24.00;39.60;;;;;;4981354;28;20463;-73
2022/08/07 03:34:16;;;;;;;2.40;2.27;;;24.00;39.60;;;;;;4984291;28;20465;-62
2022/08/07 03:36:43;;;;;;;2.53;2.40;;;24.00;39.60;;;;;;4992110;28;20463;-79
2022/08/07 03:39:11;;;;;;;2.50;2.33;;;24.00;39.60;;;;;;4982888;28;20473;-77
2022/08/07 03:41:38;;;;;;;2.00;1.90;;;24.00;39.60;;;;;;4979992;28;20543;-66
2022/08/07 03:44:04;;;;;;;2.37;2.17;;;24.00;39.60;;;;;;4980625;28;20472;-66
2022/08/07 03:46:31;;;;;;;2.70;2.57;;;24.00;39.60;;;;;;4981929;28;20923;-70
2022/08/07 03:48:57;;;;;;;2.30;2.20;;;24.00;39.60;;;;;;4980653;28;21021;-73
2022/08/07 03:51:25;;;;;;;1.93;1.83;;;24.00;39.70;;;;;;4986678;28;20487;-76
2022/08/07 03:53:51;;;;;;;2.20;2.10;;;24.00;39.60;;;;;;4980058;28;20683;-72
2022/08/07 03:56:21;;;;;;;3.00;2.80;;;24.00;39.60;;;;;;4981136;28;21380;-79
2022/08/07 03:58:48;;;;;;;2.20;2.10;;;24.00;39.50;;;;;;4981587;28;20254;-65
2022/08/07 04:01:15;;;;;;;2.30;2.20;;;24.00;39.60;;;;;;4985112;28;21006;-70
2022/08/07 04:03:41;;;;;;;2.27;2.17;;;24.00;39.60;;;;;;4983636;28;20537;-65
2022/08/07 04:06:09;;;;;;;2.37;2.27;;;24.00;39.60;;;;;;4988528;28;20452;-65
2022/08/07 04:08:35;;;;;;;2.20;2.10;;;24.00;39.60;;;;;;4987603;28;20223;-60
2022/08/07 04:11:01;;;;;;;2.10;2.00;;;24.00;39.60;;;;;;4981660;28;20565;-69
2022/08/07 04:13:27;;;;;;;2.07;1.97;;;24.00;39.60;;;;;;4981863;28;20472;-65
2022/08/07 04:15:53;;;;;;;2.57;2.37;;;24.00;39.60;;;;;;4985817;28;20469;-71
2022/08/07 04:18:19;;;;;;;2.20;2.10;;;24.00;39.60;;;;;;4982101;28;20314;-70
2022/08/07 04:20:45;;;;;;;2.37;2.27;;;24.00;39.50;;;;;;4983949;28;20227;-63
2022/08/07 04:23:12;;;;;;;2.57;2.47;;;24.00;39.60;;;;;;4987005;28;20247;-61
2022/08/07 04:25:40;;;;;;;2.00;1.90;;;24.00;39.60;;;;;;4987294;28;20460;-75
2022/08/07 04:28:06;;;;;;;2.40;2.30;;;24.00;39.60;;;;;;4982968;28;20465;-79
2022/08/07 04:30:34;;;;;;;2.17;2.07;;;24.00;39.50;;;;;;4982230;28;20487;-67
2022/08/07 04:33:04;;;;;;;2.30;2.20;;;24.00;39.50;;;;;;4978948;28;22755;-59
2022/08/07 04:35:30;;;;;;;2.40;2.30;;;24.00;39.60;;;;;;4980358;28;20472;-58
2022/08/07 04:37:55;;;;;;;2.20;2.10;;;24.00;39.50;;;;;;4994055;28;20469;-64
2022/08/07 04:40:21;;;;;;;2.30;2.20;;;24.00;39.60;;;;;;4978575;28;20281;-70
2022/08/07 04:42:47;;;;;;;2.40;2.30;;;24.00;39.60;;;;;;4984703;28;20329;-64
2022/08/07 04:45:13;;;;;;;2.20;2.10;;;24.00;39.60;;;;;;4982035;28;20524;-65
2022/08/07 04:47:57;;;;;;;2.30;2.20;;;24.00;39.60;;;;;;4980123;28;20446;-77
2022/08/07 04:50:44;;;;;;;2.47;2.37;;;24.00;39.50;;;;;;4979543;28;21136;-67
2022/08/07 04:53:13;;;;;;;2.47;2.37;;;24.00;39.60;;;;;;4988828;28;20491;-62
2022/08/07 04:55:44;;;;;;;2.30;2.20;;;24.00;39.60;;;;;;4985183;28;21775;-77
2022/08/07 04:58:36;;;;;;;2.20;2.10;;;24.00;39.60;;;;;;4979996;28;20467;-66
2022/08/07 05:01:52;;;;;;;2.20;2.10;;;24.00;39.50;;;;;;4980051;28;20581;-71
2022/08/07 05:04:57;;;;;;;2.23;2.13;;;24.00;39.60;;;;;;4957133;28;20468;-75
2022/08/07 05:07:41;;;;;;;2.70;2.50;;;24.00;40.30;;;;;;4965631;28;20479;-64
2022/08/07 05:10:15;;;;;;;2.40;2.30;;;24.00;39.60;;;;;;4986261;28;20475;-60
2022/08/07 05:12:51;;;;;;;2.10;2.00;;;24.00;40.40;;;;;;4983646;28;20463;-60
2022/08/07 05:15:23;;;;;;;2.37;2.27;;;24.00;39.50;;;;;;4984087;28;20483;-65
2022/08/07 05:17:56;;;;;;;4.13;2.37;;;24.00;39.60;;;;;;4981813;28;20472;-63
2022/08/07 05:20:40;;;;;;;2.63;2.53;;;24.00;39.60;;;;;;4995338;28;20785;-77
2022/08/07 05:23:11;;;;;;;2.20;2.10;;;24.00;39.60;;;;;;4986869;28;20598;-64
2022/08/07 05:25:40;;;;;;;2.50;2.40;;;24.00;39.60;;;;;;4983322;28;20468;-75
2022/08/07 05:28:08;;;;;;;2.83;2.50;;;24.00;39.60;;;;;;4981837;28;21030;-63
2022/08/07 05:30:35;;;;;;;2.30;2.20;;;24.00;39.60;;;;;;4984751;28;20822;-68
2022/08/07 05:33:02;;;;;;;2.10;2.00;;;24.00;39.60;;;;;;4982148;28;20469;-61
2022/08/07 05:35:30;;;;;;;2.20;2.10;;;24.00;39.60;;;;;;4978649;28;21238;-64
2022/08/07 05:37:56;;;;;;;2.40;2.20;;;24.00;39.60;;;;;;4987620;28;20468;-63
2022/08/07 05:40:22;;;;;;;2.20;2.10;;;24.00;39.50;;;;;;4990685;28;20788;-63
2022/08/07 05:42:48;;;;;;;2.50;2.40;;;24.00;39.50;;;;;;4981514;28;21555;-62
2022/08/07 05:45:15;;;;;;;2.27;2.17;;;24.00;39.50;;;;;;4981602;28;21074;-62
2022/08/07 05:47:41;;;;;;;2.50;2.40;;;24.00;39.50;;;;;;4983715;28;20460;-65
2022/08/07 05:50:08;;;;;;;2.57;2.37;;;24.00;39.50;;;;;;4985782;28;20591;-63
2022/08/07 05:52:34;;;;;;;2.40;2.20;;;24.00;39.50;;;;;;4977899;28;20465;-63
2022/08/07 05:55:01;;;;;;;2.37;2.27;;;24.10;39.60;;;;;;4990699;28;20467;-69
2022/08/07 05:57:28;;;;;;;2.20;2.10;;;24.00;39.60;;;;;;4983383;28;21837;-65
2022/08/07 05:59:55;;;;;;;2.60;2.50;;;24.00;39.50;;;;;;4978652;28;20460;-65
2022/08/07 06:02:24;;;;;;;2.63;2.43;;;24.00;39.60;;;;;;4984191;28;20829;-62
2022/08/07 06:04:54;;;;;;;2.53;2.43;;;24.00;39.50;;;;;;4982481;28;20501;-71
2022/08/07 06:07:20;;;;;;;2.40;2.30;;;24.10;39.60;;;;;;4979884;28;20472;-61
2022/08/07 06:09:46;;;;;;;2.57;2.43;;;24.00;39.50;;;;;;4983612;28;20460;-58
2022/08/07 06:12:13;;;;;;;2.57;2.37;;;24.00;39.50;;;;;;4984218;28;20480;-63
2022/08/07 06:14:39;;;;;;;2.80;2.70;;;24.00;39.50;;;;;;4979759;28;20988;-62
2022/08/07 06:17:05;;;;;;;2.47;2.27;;;24.00;39.60;;;;;;4982432;28;20563;-64
2022/08/07 06:19:31;;;;;;;2.20;2.10;;;24.00;39.60;;;;;;4981257;28;20308;-62
2022/08/07 06:21:57;;;;;;;2.23;2.13;;;24.10;39.70;;;;;;4984476;28;20516;-70
2022/08/07 06:24:23;;;;;;;2.40;2.30;;;24.00;39.60;;;;;;4981417;28;20674;-63
2022/08/07 06:26:49;;;;;;;1.70;1.60;;;24.00;39.60;;;;;;4986346;28;20555;-66
2022/08/07 06:29:14;;;;;;;2.80;2.60;;;24.00;39.50;;;;;;4979318;28;21213;-62
2022/08/07 06:31:40;;;;;;;2.40;2.30;;;24.10;39.70;;;;;;4978839;28;20245;-68
2022/08/07 06:34:05;;;;;;;2.37;2.17;;;24.10;39.60;;;;;;4983600;28;20223;-62
2022/08/07 06:36:31;;;;;;;2.70;2.50;;;24.00;39.60;;;;;;4983882;28;20284;-67
2022/08/07 06:38:56;;;;;;;2.40;2.30;;;24.00;39.60;;;;;;4983590;28;20230;-71
2022/08/07 06:41:27;;;;;;;2.50;2.40;;;24.00;39.60;;;;;;4998541;28;20234;-69
2022/08/07 06:43:55;;;;;;;2.70;2.60;;;24.10;39.70;;;;;;4981067;28;20223;-62
2022/08/07 06:46:21;;;;;;;2.70;2.60;;;24.10;39.70;;;;;;4984916;28;20464;-61
2022/08/07 06:48:46;;;;;;;2.93;2.73;;;24.00;39.60;;;;;;4979066;28;22936;-70
2022/08/07 06:51:16;;;;;;;2.80;2.60;;;24.00;39.60;;;;;;4977107;28;20468;-69
2022/08/07 06:53:43;;;;;;;2.23;2.13;;;24.10;39.70;;;;;;4984521;28;20241;-59
2022/08/07 06:56:14;;;;;;;2.17;2.07;;;24.10;39.70;;;;;;4984976;28;20472;-66
2022/08/07 06:58:41;;;;;;;2.20;2.10;;;24.10;39.70;;;;;;4981351;28;20463;-61
2022/08/07 07:01:09;;;;;;;2.23;2.13;;;24.10;39.70;;;;;;4979277;28;20491;-60
2022/08/07 07:03:38;;;;;;;2.80;2.60;;;24.00;39.70;;;;;;4982156;28;20526;-63
2022/08/07 07:06:05;;;;;;;2.43;2.27;;;24.00;39.60;;;;;;4980444;28;20523;-65
2022/08/07 07:08:30;;;;;;;2.40;2.30;;;24.00;39.60;;;;;;4980613;28;20490;-61
2022/08/07 07:10:56;;;;;;;2.50;2.40;;;24.10;39.80;;;;;;4977593;28;20475;-67
2022/08/07 07:13:40;;;;;;;2.67;2.47;;;24.00;39.60;;;;;;4988094;28;20285;-59
2022/08/07 07:16:17;;;;;;;2.47;2.37;;;24.10;39.70;;;;;;4978907;28;20234;-62
2022/08/07 07:18:48;;;;;;;2.40;2.30;;;24.10;39.70;;;;;;4981572;28;20561;-67
2022/08/07 07:21:22;;;;;;;2.53;2.43;;;24.00;39.60;;;;;;4983378;28;20483;-61
2022/08/07 07:23:48;;;;;;;2.60;2.50;;;24.10;39.70;;;;;;4984363;28;20495;-60
2022/08/07 07:26:17;;;;;;;2.27;2.17;;;24.10;39.70;;;;;;4988418;28;20575;-62
2022/08/07 07:28:58;;;;;;;2.50;2.20;;;24.10;39.70;;;;;;4990313;28;20549;-67
2022/08/07 07:31:32;;;;;;;2.60;2.50;;;24.10;39.60;;;;;;4980157;28;20595;-70
2022/08/07 07:34:05;;;;;;;2.30;2.20;;;24.10;39.80;;;;;;4982714;28;20778;-64
2022/08/07 07:36:33;;;;;;;2.50;2.40;;;24.00;39.60;;;;;;4984826;28;20475;-64
2022/08/07 07:39:02;;;;;;;2.30;2.20;;;24.00;39.60;;;;;;4980920;28;20601;-60
2022/08/07 07:41:29;;;;;;;3.27;2.97;;;24.00;39.60;;;;;;4982171;28;20483;-64
2022/08/07 07:43:58;;;;;;;2.60;2.50;;;24.10;39.70;;;;;;4991419;28;20788;-62
2022/08/07 07:46:25;;;;;;;2.30;2.20;;;24.10;39.70;;;;;;4987871;28;20441;-60
2022/08/07 07:48:52;;;;;;;2.60;2.40;;;24.10;39.70;;;;;;4985159;28;20540;-61
2022/08/07 07:51:20;;;;;;;2.47;2.37;;;24.10;39.70;;;;;;4983192;28;20464;-65
2022/08/07 07:53:47;;;;;;;2.63;2.43;;;24.10;39.70;;;;;;4987451;28;20467;-68
2022/08/07 07:56:14;;;;;;;2.20;2.10;;;24.00;39.50;;;;;;4983636;28;20471;-66
2022/08/07 07:58:42;;;;;;;2.57;2.37;;;24.00;39.50;;;;;;4993415;28;20552;-76
2022/08/07 08:01:10;;;;;;;1.97;1.87;;;24.00;39.50;;;;;;4983593;28;20476;-63
2022/08/07 08:03:37;;;;;;;2.00;1.90;;;24.00;39.50;;;;;;4981132;28;20473;-65
2022/08/07 08:06:05;;;;;;;2.20;2.10;;;24.00;39.60;;;;;;4987173;28;20535;-60
2022/08/07 08:08:31;;;;;;;2.60;2.40;;;24.00;39.50;;;;;;4983483;28;20458;-68
2022/08/07 08:10:59;;;;;;;2.90;2.70;;;24.00;39.50;;;;;;4980009;28;20798;-69
2022/08/07 08:13:26;;;;;;;2.00;1.90;;;24.00;39.30;;;;;;4989449;28;20460;-59
2022/08/07 08:15:52;;;;;;;2.50;2.40;;;24.00;39.30;;;;;;4985398;28;20471;-65
2022/08/07 08:18:21;;;;;;;2.40;2.30;;;24.00;39.30;;;;;;4982971;28;20538;-66
2022/08/07 08:20:48;;;;;;;2.63;2.43;;;24.00;39.50;;;;;;4982333;28;20571;-64
2022/08/07 08:28:50;;;;;;;2.70;2.60;;;24.00;39.30;;;;;;4982861;28;20639;-62
2022/08/07 08:31:22;;;;;;;2.23;2.13;;;24.00;39.30;;;;;;4986066;28;21054;-67
2022/08/07 08:33:53;;;;;;;2.70;2.50;;;24.00;39.30;;;;;;4980859;28;20487;-62
2022/08/07 08:36:20;;;;;;;2.60;2.40;;;24.00;39.30;;;;;;4981408;28;20464;-64
2022/08/07 08:38:48;;;;;;;2.27;2.17;;;24.00;39.30;;;;;;4980480;28;20453;-62
2022/08/07 08:41:28;;;;;;;2.80;2.60;;;24.00;39.30;;;;;;4984170;28;21132;-68
2022/08/07 08:44:18;;;;;;;2.47;2.27;;;24.00;39.30;;;;;;4984924;28;20465;-65
2022/08/07 08:47:06;;;;;;;2.60;2.50;;;24.00;39.20;;;;;;4979741;28;20547;-66
2022/08/07 08:49:57;;;;;;;2.37;2.23;;;24.00;39.30;;;;;;4984186;28;20504;-68
2022/08/07 08:52:49;;;;;;;1.87;1.77;;;24.00;39.30;;;;;;4980763;28;20963;-61
2022/08/07 08:55:34;;;;;;;2.37;2.17;;;24.00;39.30;;;;;;4977447;28;20473;-65
2022/08/07 08:58:09;;;;;;;2.27;2.17;;;24.00;39.30;;;;;;4979618;28;20480;-63
2022/08/07 09:00:53;;;;;;;4.60;3.63;;;24.00;39.30;;;;;;4989170;28;20465;-63
2022/08/07 09:03:32;;;;;;;13.60;5.10;;;24.00;39.30;;;;;;4977791;28;21263;-63
2022/08/07 09:06:03;;;;;;;66.50;14.33;;;24.00;39.30;;;;;;4982769;28;21522;-68
2022/08/07 09:08:45;;;;;;;38.80;10.77;;;24.00;39.30;;;;;;4984014;28;20495;-59
2022/08/07 09:11:16;;;;;;;50.33;13.57;;;24.00;39.10;;;;;;4996226;28;20476;-61
2022/08/07 09:13:59;;;;;;;61.03;14.73;;;24.00;39.20;;;;;;4982810;28;20484;-68
2022/08/07 09:16:45;;;;;;;49.20;13.00;;;24.10;39.30;;;;;;4995655;28;20456;-66
2022/08/07 09:19:37;;;;;;;40.90;11.30;;;24.10;39.40;;;;;;4986717;28;20465;-61
2022/08/07 09:22:37;;;;;;;34.97;10.53;;;24.10;39.50;;;;;;4998392;28;20514;-62
2022/08/07 09:25:19;;;;;;;24.33;8.97;;;24.10;39.60;;;;;;4995271;28;22508;-64
2022/08/07 09:28:05;;;;;;;18.10;6.07;;;24.10;39.70;;;;;;4993496;28;20483;-60
2022/08/07 09:30:43;;;;;;;16.80;6.17;;;24.10;39.80;;;;;;5000101;28;20468;-63
2022/08/07 09:33:21;;;;;;;18.13;6.23;;;24.10;39.90;;;;;;4991969;28;20471;-59
2022/08/07 09:36:02;;;;;;;13.17;5.00;;;24.10;40.00;;;;;;4993271;28;20507;-63
2022/08/07 09:38:52;;;;;;;10.83;4.77;;;24.20;40.10;;;;;;4993907;28;20491;-61
2022/08/07 09:41:34;;;;;;;12.80;4.77;;;24.20;40.10;;;;;;4990574;28;20476;-59
2022/08/07 09:44:23;;;;;;;9.50;3.70;;;24.20;40.10;;;;;;4998999;28;20470;-63
2022/08/07 09:47:18;;;;;;;33.17;5.60;;;24.20;40.20;;;;;;5002811;28;20476;-67
2022/08/07 09:50:00;;;;;;;10.90;4.17;;;24.20;40.10;;;;;;4976733;28;20464;-61
2022/08/07 09:52:45;;;;;;;7.27;3.83;;;24.20;40.30;;;;;;4995652;28;20482;-60
2022/08/07 09:55:47;;;;;;;11.63;4.43;;;24.20;40.20;;;;;;4992556;28;20480;-60
2022/08/07 09:58:25;;;;;;;6.70;3.30;;;24.20;40.20;;;;;;4993318;28;20471;-60
2022/08/07 10:01:10;;;;;;;6.33;3.43;;;24.20;40.30;;;;;;5001035;28;20847;-59
2022/08/07 10:03:58;;;;;;;8.53;3.17;;;24.20;40.30;;;;;;4993270;28;20514;-64
2022/08/07 10:06:39;;;;;;;3.53;2.60;;;24.20;40.40;;;;;;5000464;28;20465;-58
2022/08/07 10:09:27;;;;;;;7.00;2.80;;;24.20;40.40;;;;;;4997066;28;20492;-62
2022/08/07 10:11:58;;;;;;;4.60;3.10;;;24.20;40.40;;;;;;4996109;28;20473;-58
2022/08/07 10:14:38;;;;;;;3.00;2.80;;;24.20;40.50;;;;;;4993718;28;20590;-65
2022/08/07 10:17:25;;;;;;;3.63;2.63;;;24.20;40.50;;;;;;5003207;28;20444;-61
2022/08/07 10:20:34;;;;;;;3.30;2.17;;;24.20;40.50;;;;;;4992253;28;20826;-61
2022/08/07 10:23:20;;;;;;;3.90;2.20;;;24.20;40.50;;;;;;4973502;28;20959;-59
2022/08/07 10:26:22;;;;;;;4.13;2.73;;;24.10;40.60;;;;;;4994563;28;20483;-60
2022/08/07 10:29:16;;;;;;;2.50;2.30;;;24.10;40.50;;;;;;4992832;28;20471;-60
2022/08/07 10:32:10;;;;;;;2.13;2.03;;;24.10;40.60;;;;;;5001264;28;20586;-58
2022/08/07 10:35:05;;;;;;;2.20;2.10;;;24.10;40.50;;;;;;4996315;28;20555;-59
2022/08/07 10:37:59;;;;;;;3.20;2.20;;;24.10;40.50;;;;;;4995887;28;20788;-61
2022/08/07 10:40:39;;;;;;;2.90;2.67;;;24.10;40.60;;;;;;4986421;28;20457;-61
2022/08/07 10:43:25;;;;;;;2.00;1.90;;;24.10;40.60;;;;;;4987033;28;20482;-61
2022/08/07 10:46:08;;;;;;;2.80;2.30;;;24.10;40.60;;;;;;4994083;28;21180;-61
2022/08/07 10:48:47;;;;;;;2.40;2.30;;;24.10;40.50;;;;;;4998481;28;21519;-61
2022/08/07 10:51:33;;;;;;;2.63;2.50;;;24.10;40.50;;;;;;4987091;28;21186;-59
2022/08/07 10:54:38;;;;;;;2.00;1.90;;;24.10;40.50;;;;;;4994637;28;20510;-64
2022/08/07 10:57:41;;;;;;;2.40;2.30;;;24.10;40.50;;;;;;5001066;28;20451;-64
2022/08/07 11:00:11;;;;;;;2.93;2.73;;;24.10;40.50;;;;;;4996572;28;20467;-62
2022/08/07 11:03:32;;;;;;;2.47;2.27;;;24.10;40.40;;;;;;5001877;28;20476;-59
2022/08/07 11:06:12;;;;;;;2.60;2.40;;;24.10;40.40;;;;;;4967916;28;20463;-60
2022/08/07 11:08:48;;;;;;;2.93;1.97;;;24.10;40.30;;;;;;4995781;28;20504;-64
2022/08/07 11:11:20;;;;;;;2.30;2.20;;;24.10;40.30;;;;;;4998176;28;21218;-64
2022/08/07 11:13:56;;;;;;;2.77;2.10;;;24.10;40.30;;;;;;4998673;28;20563;-60
2022/08/07 11:16:39;;;;;;;2.43;2.33;;;24.10;40.20;;;;;;4998675;28;20687;-64
2022/08/07 11:19:43;;;;;;;2.47;2.27;;;24.10;40.20;;;;;;5005518;28;20464;-59
2022/08/07 11:22:22;;;;;;;2.53;2.33;;;24.10;40.20;;;;;;4997664;28;20502;-58
2022/08/07 11:24:55;;;;;;;2.43;2.20;;;24.10;40.20;;;;;;5001007;28;21006;-60
2022/08/07 11:27:43;;;;;;;2.13;2.03;;;24.00;40.10;;;;;;5001795;28;20494;-57
2022/08/07 11:30:18;;;;;;;2.60;2.40;;;24.00;40.00;;;;;;5000185;28;20962;-60
2022/08/07 11:32:49;;;;;;;2.70;2.60;;;24.00;40.00;;;;;;4995736;28;20472;-57
2022/08/07 11:35:21;;;;;;;2.70;2.30;;;24.00;40.00;;;;;;5000684;28;20579;-61
2022/08/07 11:38:31;;;;;;;2.60;2.40;;;24.00;40.00;;;;;;4998233;28;20814;-58
2022/08/07 11:41:10;;;;;;;2.67;2.57;;;24.10;40.10;;;;;;5002381;28;21037;-60
2022/08/07 11:43:43;;;;;;;2.73;2.53;;;24.00;40.00;;;;;;4996824;28;20522;-57
2022/08/07 11:46:47;;;;;;;2.60;2.40;;;24.00;40.00;;;;;;4998909;28;20451;-57
2022/08/07 11:49:18;;;;;;;2.00;1.90;;;24.00;40.00;;;;;;5003362;28;20475;-57
2022/08/07 11:52:05;;;;;;;2.67;2.47;;;24.00;40.00;;;;;;4998644;28;20471;-58
2022/08/07 11:54:37;;;;;;;3.33;3.03;;;24.00;40.10;;;;;;4995561;28;20839;-60
2022/08/07 11:57:19;;;;;;;2.20;2.10;;;24.00;40.10;;;;;;4994692;28;20654;-69
2022/08/07 12:00:12;;;;;;;2.50;2.40;;;24.00;40.00;;;;;;4997273;28;20556;-62
2022/08/07 12:02:55;;;;;;;2.40;2.30;;;24.00;40.00;;;;;;4996309;28;21112;-60
2022/08/07 12:05:54;;;;;;;2.20;2.10;;;24.00;40.00;;;;;;5009854;28;20542;-60
2022/08/07 12:08:33;;;;;;;3.13;2.93;;;24.00;40.00;;;;;;5000449;28;20460;-56
2022/08/07 12:11:09;;;;;;;2.20;2.10;;;24.00;40.00;;;;;;5000446;28;20463;-56
2022/08/07 12:13:53;;;;;;;2.10;2.00;;;24.00;39.90;;;;;;5003102;28;20467;-61
2022/08/07 12:16:27;;;;;;;2.47;2.37;;;24.00;40.00;;;;;;4997655;28;20682;-58
2022/08/07 12:19:13;;;;;;;2.53;2.43;;;24.00;40.00;;;;;;4996758;28;20465;-57
2022/08/07 12:22:03;;;;;;;2.47;2.27;;;24.00;39.90;;;;;;5002747;28;20487;-60
2022/08/07 12:27:52;;;;;;;2.47;2.37;;;24.00;39.90;;;;;;5002218;28;20533;-63
2022/08/07 12:30:20;;;;;;;2.70;2.53;;;24.00;39.90;;;;;;4998031;28;20462;-58
2022/08/07 12:32:51;;;;;;;2.57;2.47;;;24.00;39.90;;;;;;4998075;28;20974;-58
2022/08/07 12:35:19;;;;;;;2.33;2.23;;;24.00;39.80;;;;;;4994347;28;20470;-58
2022/08/07 12:37:50;;;;;;;2.40;2.20;;;24.00;39.80;;;;;;5004972;28;20547;-60
2022/08/07 12:40:20;;;;;;;3.30;3.10;;;24.00;39.80;;;;;;4998339;28;20662;-57
2022/08/07 12:42:50;;;;;;;2.60;2.50;;;24.00;39.80;;;;;;4997537;28;21133;-58
2022/08/07 12:45:21;;;;;;;2.50;2.40;;;24.00;39.80;;;;;;4996467;28;20460;-60
2022/08/07 12:48:10;;;;;;;3.00;2.80;;;24.00;39.80;;;;;;4991625;28;20473;-57
2022/08/07 12:51:03;;;;;;;3.70;3.50;;;24.00;39.70;;;;;;4994474;28;21047;-60
2022/08/07 12:53:44;;;;;;;2.77;2.67;;;24.00;39.70;;;;;;5004356;28;21414;-57
2022/08/07 12:56:35;;;;;;;3.40;3.20;;;24.00;39.80;;;;;;5001424;28;20468;-61
2022/08/07 12:59:07;;;;;;;3.10;2.90;;;24.00;39.80;;;;;;4991006;28;20545;-65
2022/08/07 13:02:10;;;;;;;2.90;2.70;;;24.00;39.80;;;;;;4996495;28;20479;-56
2022/08/07 13:05:01;;;;;;;3.80;2.90;;;24.00;39.80;;;;;;4977797;28;20590;-58
2022/08/07 13:07:42;;;;;;;3.10;3.00;;;24.00;39.80;;;;;;5001307;28;20459;-57
2022/08/07 13:10:26;;;;;;;3.00;2.87;;;24.00;39.80;;;;;;4994107;28;20464;-59
2022/08/07 13:13:26;;;;;;;3.73;3.53;;;24.00;39.90;;;;;;4993373;28;20483;-58
2022/08/07 13:15:59;;;;;;;3.20;3.03;;;24.00;39.80;;;;;;4994745;28;20484;-60
2022/08/07 13:18:47;;;;;;;3.37;3.10;;;24.00;39.80;;;;;;4991456;28;20541;-58
2022/08/07 13:21:33;;;;;;;3.13;2.83;;;24.00;39.90;;;;;;4995603;28;20543;-57
2022/08/07 13:24:17;;;;;;;4.33;2.53;;;24.00;39.80;;;;;;5009900;28;21070;-59
2022/08/07 13:26:51;;;;;;;145.60;14.77;;;24.00;39.80;;;;;;5001463;28;20460;-59